Time;durP1;ratioP1;P1;durP2;ratioP2;P2;SDS_P1;SDS_P2;PMS_P1;PMS_P2;Temp;Humidity;BMP_temperature;BMP_pressure;BME280_temperature;BME280_humidity;BME280_pressure;Samples;Min_cycle;Max_cycle;Signal;HPM_P1;HPM_P2
2022/11/27 00:02:18;;;;;;;8.77;4.55;;;;;;;-142.75;100.00;78547.13;4970643;28;20530;-67
2022/11/27 00:04:43;;;;;;;10.40;3.72;;;;;;;-142.75;100.00;78553.03;4976819;28;20408;-66
2022/11/27 00:07:08;;;;;;;12.70;3.50;;;;;;;-142.75;100.00;78543.19;4963375;28;20419;-66
2022/11/27 00:11:59;;;;;;;8.40;3.25;;;;;;;-142.75;100.00;78543.19;4987235;22;20491;-67
2022/11/27 00:14:25;;;;;;;12.00;3.05;;;;;;;-142.75;100.00;78535.31;4946902;28;20283;-66
2022/11/27 00:16:50;;;;;;;18.67;3.83;;;;;;;-142.75;100.00;78539.25;4962243;28;20198;-67
2022/11/27 00:19:16;;;;;;;9.70;3.70;;;;;;;-142.75;100.00;78551.06;4963206;28;20304;-69
2022/11/27 00:21:41;;;;;;;13.38;3.38;;;;;;;-142.75;100.00;78537.28;4954608;28;20305;-67
2022/11/27 00:24:08;;;;;;;8.82;3.95;;;;;;;-142.75;100.00;78547.13;4955455;28;20627;-67
2022/11/27 00:26:34;;;;;;;9.60;3.83;;;;;;;-142.75;100.00;78543.19;4955594;28;20017;-66
2022/11/27 00:29:00;;;;;;;13.98;3.70;;;;;;;-142.75;100.00;78539.25;4958262;28;20342;-66
2022/11/27 00:31:30;;;;;;;8.43;3.00;;;;;;;-142.75;100.00;78535.31;4955000;28;20029;-66
2022/11/27 00:33:58;;;;;;;8.43;3.30;;;;;;;-142.75;100.00;78545.16;4951723;28;20531;-65
2022/11/27 00:36:24;;;;;;;7.77;4.70;;;;;;;-142.75;100.00;78543.19;4950737;28;20102;-66
2022/11/27 00:38:50;;;;;;;12.43;3.37;;;;;;;-142.75;100.00;78539.25;4945496;28;20054;-67
2022/11/27 00:41:18;;;;;;;10.82;3.08;;;;;;;-142.75;100.00;78547.13;4955232;28;20347;-65
2022/11/27 00:43:45;;;;;;;12.80;3.00;;;;;;;-142.75;100.00;78549.09;4954559;28;20022;-69
2022/11/27 00:46:17;;;;;;;10.03;3.40;;;;;;;-142.75;100.00;78529.41;4944349;28;20030;-68
2022/11/27 00:48:43;;;;;;;11.87;3.47;;;;;;;-142.75;100.00;78527.44;4951179;28;20042;-67
2022/11/27 00:51:15;;;;;;;10.80;3.40;;;;;;;-142.75;100.00;78529.41;4950617;28;20045;-67
2022/11/27 00:53:41;;;;;;;11.20;3.87;;;;;;;-142.75;100.00;78529.41;4953979;28;20052;-67
2022/11/27 00:56:07;;;;;;;9.60;3.30;;;;;;;-142.75;100.00;78531.38;4954874;28;20342;-67
2022/11/27 00:58:33;;;;;;;12.38;3.75;;;;;;;-142.75;100.00;78547.13;4948901;28;20021;-68
2022/11/27 01:01:01;;;;;;;8.93;3.28;;;;;;;-142.75;100.00;78543.19;4955619;28;20354;-68
2022/11/27 01:03:28;;;;;;;13.67;3.30;;;;;;;-142.75;100.00;78535.31;4949551;28;20018;-66
2022/11/27 01:05:54;;;;;;;8.50;2.93;;;;;;;-142.75;100.00;78509.72;4957152;28;20033;-66
2022/11/27 01:08:20;;;;;;;6.85;2.85;;;;;;;-142.75;100.00;78519.56;4959107;28;20021;-66
2022/11/27 01:10:55;;;;;;;16.10;4.17;;;;;;;-142.75;100.00;78507.75;4952272;28;20021;-67
2022/11/27 01:13:29;;;;;;;13.27;3.40;;;;;;;-142.75;100.00;78523.50;4959397;28;20025;-68
2022/11/27 01:16:05;;;;;;;11.17;3.80;;;;;;;-142.75;100.00;78511.69;4953390;28;20137;-66
2022/11/27 01:18:32;;;;;;;9.77;3.28;;;;;;;-142.75;100.00;78511.69;4952392;28;20025;-65
2022/11/27 01:20:58;;;;;;;18.90;3.93;;;;;;;-142.75;100.00;78519.56;4950063;28;20056;-66
2022/11/27 01:23:23;;;;;;;14.20;3.42;;;;;;;-142.75;100.00;78495.94;4949908;28;20430;-66
2022/11/27 01:25:52;;;;;;;11.75;3.70;;;;;;;-142.75;100.00;78505.78;4951629;28;20346;-67
2022/11/27 01:28:17;;;;;;;12.70;3.00;;;;;;;-142.75;100.00;78503.81;4951828;28;20025;-66
2022/11/27 01:30:43;;;;;;;11.60;3.03;;;;;;;-142.75;100.00;78480.16;4946181;28;20410;-67
2022/11/27 01:33:08;;;;;;;8.75;2.50;;;;;;;-142.75;100.00;78476.22;4945549;28;20443;-66
2022/11/27 01:35:34;;;;;;;12.05;3.05;;;;;;;-142.75;100.00;78490.00;4951388;28;20343;-66
2022/11/27 01:37:59;;;;;;;8.65;2.88;;;;;;;-142.75;100.00;78484.09;4957282;28;20332;-67
2022/11/27 01:40:25;;;;;;;10.45;2.72;;;;;;;-142.75;100.00;78480.16;4951201;28;20355;-67
2022/11/27 01:42:50;;;;;;;8.35;2.63;;;;;;;-142.75;100.00;78474.25;4950278;28;20119;-65
2022/11/27 01:45:19;;;;;;;10.73;2.70;;;;;;;-142.75;100.00;78478.19;4957383;28;20018;-67
2022/11/27 01:47:49;;;;;;;10.53;2.90;;;;;;;-142.75;100.00;78472.28;4949162;28;20140;-69
2022/11/27 01:50:23;;;;;;;8.90;3.20;;;;;;;-142.75;100.00;78468.34;4956003;28;20039;-66
2022/11/27 01:52:53;;;;;;;10.80;2.83;;;;;;;-142.75;100.00;78458.50;4957191;28;20040;-66
2022/11/27 01:55:33;;;;;;;10.87;2.87;;;;;;;-142.75;100.00;78452.59;4954145;28;20030;-67
2022/11/27 01:58:05;;;;;;;10.17;2.73;;;;;;;-142.75;100.00;78458.50;4950973;28;20037;-66
2022/11/27 02:00:31;;;;;;;6.87;2.53;;;;;;;-142.75;100.00;78460.47;4946916;28;20059;-67
2022/11/27 02:02:56;;;;;;;8.20;2.40;;;;;;;-142.75;100.00;78464.41;4950235;28;20030;-66
2022/11/27 02:05:25;;;;;;;9.32;2.22;;;;;;;-142.75;100.00;78458.50;4953248;28;20373;-66
2022/11/27 02:07:52;;;;;;;6.80;2.23;;;;;;;-142.75;100.00;78462.44;4953991;28;20824;-66
2022/11/27 02:10:18;;;;;;;6.40;2.50;;;;;;;-142.75;100.00;78440.78;4956981;28;20056;-66
2022/11/27 02:12:55;;;;;;;7.80;2.85;;;;;;;-142.75;100.00;78464.41;4953612;28;20060;-67
2022/11/27 02:15:39;;;;;;;12.43;3.13;;;;;;;-142.75;100.00;78440.78;4958992;28;20033;-66
2022/11/27 02:18:16;;;;;;;8.57;2.37;;;;;;;-142.75;100.00;78440.78;4955601;28;20025;-66
2022/11/27 02:21:04;;;;;;;7.50;2.63;;;;;;;-142.75;100.00;78448.66;4951591;28;20021;-66
2022/11/27 02:24:21;;;;;;;11.70;3.43;;;;;;;-142.75;100.00;78450.63;4949536;28;20538;-66
2022/11/27 02:26:49;;;;;;;18.70;3.50;;;;;;;-142.75;100.00;78452.59;4931668;28;20056;-66
2022/11/27 02:29:21;;;;;;;10.17;2.60;;;;;;;-142.75;100.00;78448.66;4958246;28;20038;-66
2022/11/27 02:32:10;;;;;;;10.83;2.97;;;;;;;-142.75;100.00;78438.81;4954977;28;20136;-66
2022/11/27 02:34:53;;;;;;;7.63;2.60;;;;;;;-142.75;100.00;78444.72;4952515;28;20060;-66
2022/11/27 02:37:34;;;;;;;9.03;2.90;;;;;;;-142.75;100.00;78436.84;4953969;28;20048;-66
2022/11/27 02:40:31;;;;;;;12.87;2.90;;;;;;;-142.75;100.00;78430.94;4954415;28;20033;-66
2022/11/27 02:43:18;;;;;;;7.73;2.33;;;;;;;-142.75;100.00;78419.13;4930677;28;20111;-69
2022/11/27 02:45:47;;;;;;;18.02;2.88;;;;;;;-142.75;100.00;78432.91;4952861;28;20026;-67
2022/11/27 02:48:16;;;;;;;12.70;2.77;;;;;;;-142.75;100.00;78423.06;4954052;28;20026;-66
2022/11/27 02:50:44;;;;;;;9.77;2.70;;;;;;;-142.75;100.00;78417.16;4959623;28;20601;-67
2022/11/27 02:53:18;;;;;;;9.90;2.60;;;;;;;-142.75;100.00;78413.22;4962187;28;20091;-66
2022/11/27 02:55:47;;;;;;;8.83;2.80;;;;;;;-142.75;100.00;78409.28;4954408;28;20025;-66
2022/11/27 02:58:16;;;;;;;7.80;2.57;;;;;;;-142.75;100.00;78403.38;4957186;28;20152;-66
2022/11/27 03:00:43;;;;;;;8.43;2.33;;;;;;;-142.75;100.00;78405.34;4954130;28;20651;-66
2022/11/27 03:03:11;;;;;;;11.27;2.80;;;;;;;-142.75;100.00;78413.22;4947046;28;20026;-66
2022/11/27 03:05:42;;;;;;;5.30;2.20;;;;;;;-142.75;100.00;78411.25;4957174;28;20029;-66
2022/11/27 03:08:34;;;;;;;7.83;2.30;;;;;;;-142.75;100.00;78399.44;4959700;28;20033;-66
2022/11/27 03:11:06;;;;;;;12.73;2.87;;;;;;;-142.75;100.00;78409.28;4954457;28;20562;-66
2022/11/27 03:13:37;;;;;;;9.53;2.27;;;;;;;-142.75;100.00;78403.38;4956259;28;20043;-66
2022/11/27 03:16:05;;;;;;;10.50;2.47;;;;;;;-142.75;100.00;78409.28;4955434;28;20026;-67
2022/11/27 03:18:59;;;;;;;7.07;2.77;;;;;;;-142.75;100.00;78393.50;4954509;28;20765;-66
2022/11/27 03:21:31;;;;;;;13.17;2.40;;;;;;;-142.75;100.00;78389.56;4956593;28;20589;-65
2022/11/27 03:23:57;;;;;;;10.67;3.00;;;;;;;-142.75;100.00;78389.56;4955899;28;20029;-66
2022/11/27 03:26:23;;;;;;;6.57;2.30;;;;;;;-142.75;100.00;78395.47;4956014;28;20021;-67
2022/11/27 03:28:50;;;;;;;13.30;2.47;;;;;;;-142.75;100.00;78399.44;4955093;28;20203;-66
2022/11/27 03:31:16;;;;;;;11.93;2.87;;;;;;;-142.75;100.00;78399.44;4957150;28;20036;-67
2022/11/27 03:33:42;;;;;;;9.30;2.67;;;;;;;-142.75;100.00;78391.53;4951583;28;20026;-66
2022/11/27 03:36:16;;;;;;;10.48;2.42;;;;;;;-142.75;100.00;78379.72;4950631;28;20365;-66
2022/11/27 03:38:44;;;;;;;8.93;2.83;;;;;;;-142.75;100.00;78385.63;4953899;28;20025;-66
2022/11/27 03:41:39;;;;;;;9.50;2.10;;;;;;;-142.75;100.00;78383.66;4952849;28;20037;-66
2022/11/27 03:44:29;;;;;;;7.03;2.20;;;;;;;-142.75;100.00;78381.69;4957191;28;20096;-66
2022/11/27 03:47:05;;;;;;;6.07;1.93;;;;;;;-142.75;100.00;78391.53;4945684;28;20034;-67
2022/11/27 03:49:52;;;;;;;7.10;2.33;;;;;;;-142.75;100.00;78379.72;4954942;28;20030;-66
2022/11/27 03:52:38;;;;;;;7.05;2.58;;;;;;;-142.75;100.00;78369.88;4953818;28;20025;-66
2022/11/27 03:55:15;;;;;;;10.57;2.27;;;;;;;-142.75;100.00;78371.84;4957877;28;20060;-67
2022/11/27 03:58:10;;;;;;;8.67;2.53;;;;;;;-142.75;100.00;78371.84;4951884;28;20093;-67
2022/11/27 04:00:39;;;;;;;6.50;1.97;;;;;;;-142.75;100.00;78373.81;4933135;28;20041;-66
2022/11/27 04:03:09;;;;;;;4.57;2.17;;;;;;;-142.75;100.00;78356.09;4950551;28;20021;-66
2022/11/27 04:05:34;;;;;;;8.07;2.27;;;;;;;-142.75;100.00;78369.88;4950549;28;20136;-66
2022/11/27 04:07:59;;;;;;;7.32;2.30;;;;;;;-142.75;100.00;78383.66;4953781;28;20327;-67
2022/11/27 04:10:25;;;;;;;12.27;1.92;;;;;;;-142.75;100.00;78369.88;4949140;28;20390;-67
2022/11/27 04:12:50;;;;;;;10.32;2.28;;;;;;;-142.75;100.00;78373.81;4945288;28;20316;-66
2022/11/27 04:15:16;;;;;;;5.63;2.00;;;;;;;-142.75;100.00;78377.75;4957621;28;20459;-66
2022/11/27 04:17:41;;;;;;;8.00;2.28;;;;;;;-142.75;100.00;78363.97;4955889;28;20343;-66
2022/11/27 04:20:07;;;;;;;10.02;2.25;;;;;;;-142.75;100.00;78367.91;4950766;28;20370;-66
2022/11/27 04:22:33;;;;;;;4.32;2.10;;;;;;;-142.75;100.00;78381.69;4947530;28;20188;-66
2022/11/27 04:24:58;;;;;;;8.65;2.17;;;;;;;-142.75;100.00;78373.81;4960106;28;20203;-66
2022/11/27 04:27:24;;;;;;;8.13;2.88;;;;;;;-142.75;100.00;78381.69;4950665;28;20387;-66
2022/11/27 04:29:49;;;;;;;8.02;2.28;;;;;;;-142.75;100.00;78383.66;4956407;28;20515;-66
2022/11/27 04:32:16;;;;;;;4.80;2.15;;;;;;;-142.75;100.00;78387.59;4952052;28;20291;-65
2022/11/27 04:34:41;;;;;;;6.87;2.20;;;;;;;-142.75;100.00;78401.38;4958555;28;20132;-66
2022/11/27 04:37:07;;;;;;;8.73;2.60;;;;;;;-142.75;100.00;78405.34;4956327;28;20326;-67
2022/11/27 04:39:32;;;;;;;8.77;2.58;;;;;;;-142.75;100.00;78411.25;4963283;28;20312;-66
2022/11/27 04:41:58;;;;;;;6.82;3.03;;;;;;;-142.75;100.00;78401.38;4950745;28;20301;-66
2022/11/27 04:44:23;;;;;;;11.07;2.13;;;;;;;-142.75;100.00;78409.28;4957201;28;20239;-66
2022/11/27 04:46:49;;;;;;;7.03;1.80;;;;;;;-142.75;100.00;78413.22;4954682;28;20248;-66
2022/11/27 04:49:14;;;;;;;5.25;1.90;;;;;;;-142.75;100.00;78423.06;4949014;28;20336;-66
2022/11/27 04:51:40;;;;;;;10.20;2.65;;;;;;;-142.75;100.00;78421.09;4953755;28;20327;-66
2022/11/27 04:54:05;;;;;;;7.85;2.38;;;;;;;-142.75;100.00;78421.09;4958249;28;20331;-66
2022/11/27 04:56:31;;;;;;;8.60;2.38;;;;;;;-142.75;100.00;78427.00;4956240;28;20103;-67
2022/11/27 04:58:57;;;;;;;9.18;2.40;;;;;;;-142.75;100.00;78417.16;4952647;28;20509;-65
2022/11/27 05:01:22;;;;;;;;;;;;;;;-142.75;100.00;78407.31;4950279;28;20076;-66
2022/11/27 05:03:48;;;;;;;13.07;2.33;;;;;;;-142.75;100.00;78403.38;4957719;28;20249;-66
2022/11/27 05:06:14;;;;;;;7.25;2.33;;;;;;;-142.75;100.00;78395.47;4952094;28;20435;-66
2022/11/27 05:08:40;;;;;;;9.43;2.42;;;;;;;-142.75;100.00;78397.44;4958048;28;20342;-66
2022/11/27 05:11:14;;;;;;;10.60;2.45;;;;;;;-142.75;100.00;78393.50;4947454;28;20371;-66
2022/11/27 05:13:40;;;;;;;5.03;1.77;;;;;;;-142.75;100.00;78377.75;4955487;28;20025;-66
2022/11/27 05:16:05;;;;;;;7.28;2.47;;;;;;;-142.75;100.00;78387.59;4955452;28;20064;-66
2022/11/27 05:18:32;;;;;;;12.23;3.38;;;;;;;-142.75;100.00;78385.63;4948755;28;20421;-66
2022/11/27 05:20:59;;;;;;;7.40;2.87;;;;;;;-142.75;100.00;78379.72;4953344;28;20060;-67
2022/11/27 05:23:25;;;;;;;12.30;2.23;;;;;;;-142.75;100.00;78391.53;4952176;28;20025;-66
2022/11/27 05:25:50;;;;;;;5.35;2.25;;;;;;;-142.75;100.00;78393.50;4955339;28;20484;-66
2022/11/27 05:28:16;;;;;;;6.75;1.92;;;;;;;-142.75;100.00;78389.56;4951039;28;20348;-67
2022/11/27 05:30:42;;;;;;;7.63;1.70;;;;;;;-142.75;100.00;78391.53;4957624;28;20330;-67
2022/11/27 05:33:07;;;;;;;2.75;1.58;;;;;;;-142.75;100.00;78393.50;4953037;28;20326;-65
2022/11/27 05:35:33;;;;;;;6.43;2.03;;;;;;;-142.75;100.00;78383.66;4950929;28;20385;-66
2022/11/27 05:37:58;;;;;;;11.93;2.20;;;;;;;-142.75;100.00;78373.81;4954917;28;20312;-66
2022/11/27 05:40:24;;;;;;;5.18;1.75;;;;;;;-142.75;100.00;78381.69;4953107;28;20443;-66
2022/11/27 05:42:49;;;;;;;3.95;1.77;;;;;;;-142.75;100.00;78385.63;4954094;28;20322;-66
2022/11/27 05:45:15;;;;;;;3.65;1.27;;;;;;;-142.75;100.00;78377.75;4949350;28;20324;-66
2022/11/27 05:47:40;;;;;;;8.77;2.20;;;;;;;-142.75;100.00;78385.63;4950808;28;20347;-67
2022/11/27 05:50:06;;;;;;;8.88;2.10;;;;;;;-142.75;100.00;78379.72;4944589;28;20363;-69
2022/11/27 05:52:32;;;;;;;5.85;1.90;;;;;;;-142.75;100.00;78385.63;4955895;28;20378;-67
2022/11/27 05:54:57;;;;;;;10.60;2.30;;;;;;;-142.75;100.00;78379.72;4952432;28;20034;-67
2022/11/27 05:57:23;;;;;;;4.57;1.58;;;;;;;-142.75;100.00;78377.75;4957697;28;20324;-67
2022/11/27 05:59:48;;;;;;;4.90;1.55;;;;;;;-142.75;100.00;78377.75;4954667;28;20350;-68
2022/11/27 06:02:13;;;;;;;4.43;1.35;;;;;;;-142.75;100.00;78375.78;4955968;28;20346;-67
2022/11/27 06:04:39;;;;;;;3.85;0.98;;;;;;;-142.75;100.00;78375.78;4947387;28;20332;-67
2022/11/27 06:07:04;;;;;;;6.78;1.98;;;;;;;-142.75;100.00;78362.00;4953725;28;20331;-67
2022/11/27 06:09:30;;;;;;;3.38;1.55;;;;;;;-142.75;100.00;78365.94;4954206;28;20525;-67
2022/11/27 06:11:56;;;;;;;4.38;1.35;;;;;;;-142.75;100.00;78363.97;4979580;22;20320;-63
2022/11/27 06:14:21;;;;;;;7.90;1.75;;;;;;;-142.75;100.00;78369.88;4946314;28;20430;-65
2022/11/27 06:16:47;;;;;;;2.97;1.20;;;;;;;-142.75;100.00;78365.94;4956579;28;20320;-64
2022/11/27 06:19:12;;;;;;;9.85;2.05;;;;;;;-142.75;100.00;78365.94;4954348;28;20332;-64
2022/11/27 06:21:38;;;;;;;13.23;5.75;;;;;;;-142.75;100.00;78381.69;4954395;28;20338;-63
2022/11/27 06:24:04;;;;;;;6.47;2.85;;;;;;;-142.75;100.00;78369.88;4956874;28;20242;-64
2022/11/27 06:26:31;;;;;;;6.03;2.03;;;;;;;-142.75;100.00;78354.13;4950794;28;20484;-64
2022/11/27 06:28:58;;;;;;;4.47;2.27;;;;;;;-142.75;100.00;78371.84;4955433;28;20029;-63
2022/11/27 06:31:26;;;;;;;6.17;2.10;;;;;;;-142.75;100.00;78348.22;4946748;28;20026;-64
2022/11/27 06:33:53;;;;;;;7.77;2.70;;;;;;;-142.75;100.00;78342.31;4952243;28;20052;-63
2022/11/27 06:36:20;;;;;;;8.97;3.23;;;;;;;-142.75;100.00;78352.16;4950987;28;20130;-64
2022/11/27 06:38:45;;;;;;;5.20;1.30;;;;;;;-142.75;100.00;78346.25;4948846;28;20057;-64
2022/11/27 06:41:16;;;;;;;9.85;2.05;;;;;;;-142.75;100.00;78354.13;4949844;28;20318;-63
2022/11/27 06:43:42;;;;;;;3.00;1.70;;;;;;;-142.75;100.00;78348.22;4954540;28;20283;-64
2022/11/27 06:46:12;;;;;;;5.30;1.83;;;;;;;-142.75;100.00;78340.34;4951943;28;20202;-64
2022/11/27 06:48:38;;;;;;;9.00;1.83;;;;;;;-142.75;100.00;78354.13;4948205;28;20045;-64
2022/11/27 06:51:05;;;;;;;5.45;1.67;;;;;;;-142.75;100.00;78336.41;4953056;28;20331;-63
2022/11/27 06:53:34;;;;;;;5.97;1.80;;;;;;;-142.75;100.00;78348.22;4945177;28;20022;-64
2022/11/27 06:56:02;;;;;;;11.60;1.80;;;;;;;-142.75;100.00;78342.31;4947540;28;20547;-63
2022/11/27 06:58:27;;;;;;;11.90;3.17;;;;;;;-142.75;100.00;78348.22;4952787;28;20026;-64
2022/11/27 07:00:58;;;;;;;6.45;2.05;;;;;;;-142.75;100.00;78334.44;4953495;28;20278;-64
2022/11/27 07:03:24;;;;;;;5.33;2.30;;;;;;;-142.75;100.00;78338.38;4962396;28;20542;-64
2022/11/27 07:05:49;;;;;;;7.25;2.45;;;;;;;-142.75;100.00;78338.38;4946805;28;20025;-63
2022/11/27 07:08:15;;;;;;;5.53;2.63;;;;;;;-142.75;100.00;78322.63;4951719;28;20455;-64
2022/11/27 07:10:40;;;;;;;9.27;2.00;;;;;;;-142.75;100.00;78326.56;4961247;28;20344;-63
2022/11/27 07:13:06;;;;;;;8.43;2.33;;;;;;;-142.75;100.00;78330.50;4959158;28;20445;-63
2022/11/27 07:15:32;;;;;;;5.28;2.40;;;;;;;-142.75;100.00;78322.63;4951743;28;20305;-63
2022/11/27 07:17:57;;;;;;;6.60;2.65;;;;;;;-142.75;100.00;78336.41;4961540;28;20414;-62
2022/11/27 07:20:23;;;;;;;7.80;2.55;;;;;;;-142.75;100.00;78346.25;4953216;28;20301;-63
2022/11/27 07:22:48;;;;;;;9.25;3.40;;;;;;;-142.75;100.00;78334.44;4953732;28;20348;-64
2022/11/27 07:25:14;;;;;;;7.13;2.78;;;;;;;-142.75;100.00;78330.50;4953324;28;20498;-64
2022/11/27 07:27:40;;;;;;;12.38;5.75;;;;;;;-142.75;100.00;78330.50;4951605;28;20350;-63
2022/11/27 07:30:06;;;;;;;8.45;2.47;;;;;;;-142.75;100.00;78318.69;4957471;28;20132;-65
2022/11/27 07:32:31;;;;;;;12.95;4.45;;;;;;;-142.75;100.00;78316.72;4958435;28;20425;-63
2022/11/27 07:34:57;;;;;;;5.75;2.10;;;;;;;-142.75;100.00;78310.81;4955708;28;20370;-64
2022/11/27 07:37:22;;;;;;;8.25;4.40;;;;;;;-142.75;100.00;78308.84;4950237;28;20195;-64
2022/11/27 07:39:48;;;;;;;7.95;3.28;;;;;;;-142.75;100.00;78310.81;4955399;28;20296;-64
2022/11/27 07:42:13;;;;;;;7.72;3.67;;;;;;;-142.75;100.00;78299.00;4958532;28;20025;-63
2022/11/27 07:44:39;;;;;;;7.97;2.83;;;;;;;-142.75;100.00;78293.06;4953784;28;20029;-64
2022/11/27 07:47:04;;;;;;;8.23;2.97;;;;;;;-142.75;100.00;78289.13;4953542;28;20408;-65
2022/11/27 07:49:29;;;;;;;8.07;3.40;;;;;;;-142.75;100.00;78295.06;4958921;28;20382;-65
2022/11/27 07:51:55;;;;;;;6.63;2.75;;;;;;;-142.75;100.00;78289.13;4945647;28;20331;-65
2022/11/27 07:54:20;;;;;;;6.55;3.03;;;;;;;-142.75;100.00;78283.22;4950734;28;20317;-64
2022/11/27 07:56:46;;;;;;;8.40;2.88;;;;;;;-142.75;100.00;78273.38;4949736;28;20367;-64
2022/11/27 07:59:11;;;;;;;10.77;2.75;;;;;;;-142.75;100.00;78273.38;4956522;28;20465;-65
2022/11/27 08:01:37;;;;;;;8.60;2.95;;;;;;;-142.75;100.00;78275.34;4949581;28;20347;-63
2022/11/27 08:04:02;;;;;;;10.35;2.72;;;;;;;-142.75;100.00;78267.47;4956589;28;20358;-64
2022/11/27 08:06:28;;;;;;;8.02;2.78;;;;;;;-142.75;100.00;78267.47;4952288;28;20030;-67
2022/11/27 08:08:55;;;;;;;6.40;2.70;;;;;;;-142.75;100.00;78267.47;4954857;28;20434;-64
2022/11/27 08:11:24;;;;;;;11.10;2.63;;;;;;;-142.75;100.00;78273.38;4960238;28;20056;-65
2022/11/27 08:13:55;;;;;;;5.37;2.57;;;;;;;-142.75;100.00;78257.63;4946853;28;20096;-64
2022/11/27 08:16:21;;;;;;;6.80;2.73;;;;;;;-142.75;100.00;78267.47;4960355;28;20138;-64
2022/11/27 08:18:47;;;;;;;6.60;2.55;;;;;;;-142.75;100.00;78259.59;4954874;28;20320;-63
2022/11/27 08:21:13;;;;;;;7.45;2.88;;;;;;;-142.75;100.00;78261.56;4952058;28;20053;-63
2022/11/27 08:23:38;;;;;;;6.43;2.72;;;;;;;-142.75;100.00;78261.56;4947842;28;20200;-65
2022/11/27 08:26:07;;;;;;;11.02;3.03;;;;;;;-142.75;100.00;78263.53;4957058;28;20267;-64
2022/11/27 08:28:33;;;;;;;6.20;2.50;;;;;;;-142.75;100.00;78257.63;4950965;28;20648;-65
2022/11/27 08:31:00;;;;;;;9.13;2.78;;;;;;;-142.75;100.00;78253.69;4944037;28;20128;-64
2022/11/27 08:33:26;;;;;;;10.23;3.17;;;;;;;-142.75;100.00;78271.41;4945567;28;20061;-64
2022/11/27 08:35:53;;;;;;;7.65;2.53;;;;;;;-142.75;100.00;78273.38;4946390;28;20500;-64
2022/11/27 08:38:18;;;;;;;;;;;;;;;-142.75;100.00;78267.47;4951740;28;20049;-64
2022/11/27 08:40:44;;;;;;;6.80;2.73;;;;;;;-142.75;100.00;78277.31;4946024;28;20129;-64
2022/11/27 08:43:09;;;;;;;9.30;2.88;;;;;;;-142.75;100.00;78259.59;4948444;28;20065;-64
2022/11/27 08:45:38;;;;;;;11.85;3.58;;;;;;;-142.75;100.00;78255.66;4951636;28;20311;-64
2022/11/27 08:48:03;;;;;;;12.70;3.20;;;;;;;-142.75;100.00;78277.31;4958600;28;20535;-65
2022/11/27 08:50:29;;;;;;;17.20;5.55;;;;;;;-142.75;100.00;78279.28;4955534;28;20037;-65
2022/11/27 08:52:55;;;;;;;15.98;4.40;;;;;;;-142.75;100.00;78283.22;4957869;28;20080;-65
2022/11/27 08:55:21;;;;;;;9.07;3.27;;;;;;;-142.75;100.00;78279.28;4955716;28;20608;-65
2022/11/27 08:57:46;;;;;;;8.27;3.10;;;;;;;-142.75;100.00;78271.41;4957606;28;20056;-64
2022/11/27 09:00:12;;;;;;;9.23;2.80;;;;;;;-142.75;100.00;78283.22;4943899;28;20383;-65
2022/11/27 09:02:38;;;;;;;7.50;2.93;;;;;;;-142.75;100.00;78283.22;4959952;28;20065;-65
2022/11/27 09:05:04;;;;;;;14.00;3.63;;;;;;;-142.75;100.00;78279.28;4951596;28;20029;-66
2022/11/27 09:07:30;;;;;;;8.60;3.10;;;;;;;-142.75;100.00;78279.28;4956728;28;20083;-65
2022/11/27 09:09:59;;;;;;;7.20;2.97;;;;;;;-142.75;100.00;78281.25;4959720;28;20420;-65
2022/11/27 09:12:25;;;;;;;12.37;4.10;;;;;;;-142.75;100.00;78273.38;4959932;28;20029;-66
2022/11/27 09:14:50;;;;;;;7.00;2.38;;;;;;;-142.75;100.00;78267.47;4956547;28;20361;-67
2022/11/27 09:17:17;;;;;;;8.65;3.30;;;;;;;-142.75;100.00;78259.59;4962979;28;20349;-65
2022/11/27 09:19:42;;;;;;;8.43;3.37;;;;;;;-142.75;100.00;78267.47;4960457;28;20091;-66
2022/11/27 09:22:08;;;;;;;10.68;3.40;;;;;;;-142.75;100.00;78267.47;4952522;28;20338;-65
2022/11/27 09:24:35;;;;;;;12.20;3.92;;;;;;;-142.75;100.00;78255.66;4949663;28;20296;-66
2022/11/27 09:27:01;;;;;;;9.07;3.00;;;;;;;-142.75;100.00;78259.59;4955185;28;20057;-66
2022/11/27 09:29:26;;;;;;;7.68;3.05;;;;;;;-142.75;100.00;78253.69;4950812;28;20326;-66
2022/11/27 09:31:52;;;;;;;8.18;3.10;;;;;;;-142.75;100.00;78249.75;4959444;28;20216;-66
2022/11/27 09:34:17;;;;;;;9.43;3.38;;;;;;;-142.75;100.00;78265.50;4946285;28;20032;-66
2022/11/27 09:36:43;;;;;;;10.27;2.97;;;;;;;-142.75;100.00;78249.75;4945304;28;20429;-65
2022/11/27 09:39:08;;;;;;;7.93;3.53;;;;;;;-142.75;100.00;78249.75;4955636;28;20461;-66
2022/11/27 09:41:53;;;;;;;6.55;3.10;;;;;;;-142.75;100.00;78241.88;4948909;28;20469;-66
2022/11/27 09:44:53;;;;;;;10.10;3.70;;;;;;;-142.75;100.00;78235.97;4954979;28;20052;-64
2022/11/27 09:47:40;;;;;;;9.60;3.30;;;;;;;-142.75;100.00;78232.03;4948312;28;20151;-64
2022/11/27 09:50:29;;;;;;;11.80;3.47;;;;;;;-142.75;100.00;78243.84;4960639;28;20060;-64
2022/11/27 09:53:28;;;;;;;7.60;4.10;;;;;;;-142.75;100.00;78234.00;4951844;28;20596;-65
2022/11/27 09:55:56;;;;;;;13.53;5.97;;;;;;;-142.75;100.00;78234.00;4945305;28;20136;-64
2022/11/27 09:58:45;;;;;;;12.30;4.60;;;;;;;-142.75;100.00;78224.16;4951209;28;20029;-64
2022/11/27 10:01:23;;;;;;;8.17;3.00;;;;;;;-142.75;100.00;78212.34;4951674;28;20021;-63
2022/11/27 10:03:48;;;;;;;9.90;4.27;;;;;;;-142.75;100.00;78210.38;4950275;28;20547;-63
2022/11/27 10:06:29;;;;;;;14.65;4.38;;;;;;;-142.75;100.00;78216.28;4953723;28;20068;-64
2022/11/27 10:09:05;;;;;;;13.83;4.50;;;;;;;-142.75;100.00;78210.38;4953131;28;20029;-64
2022/11/27 10:11:49;;;;;;;13.00;4.03;;;;;;;-142.75;100.00;78208.41;4942824;28;20055;-63
2022/11/27 10:14:51;;;;;;;14.10;4.70;;;;;;;-142.75;100.00;78208.41;4953496;28;20033;-64
2022/11/27 10:17:21;;;;;;;8.93;4.23;;;;;;;-142.75;100.00;78196.59;4953258;28;20042;-63
2022/11/27 10:20:01;;;;;;;10.97;3.67;;;;;;;-142.75;100.00;78192.66;4948884;28;20040;-64
2022/11/27 10:22:49;;;;;;;12.03;4.00;;;;;;;-142.75;100.00;78188.72;4953002;28;20641;-64
2022/11/27 10:25:30;;;;;;;9.30;3.40;;;;;;;-142.75;100.00;78196.59;4947395;28;20119;-64
2022/11/27 10:28:22;;;;;;;10.97;3.80;;;;;;;-142.75;100.00;78192.66;4949169;28;20779;-62
2022/11/27 10:31:09;;;;;;;9.67;4.37;;;;;;;-142.75;100.00;78188.72;4945426;28;20057;-65
2022/11/27 10:33:45;;;;;;;8.35;3.22;;;;;;;-142.75;100.00;78184.78;4950300;28;20569;-65
2022/11/27 10:36:25;;;;;;;8.25;3.33;;;;;;;-142.75;100.00;78180.81;4954271;28;20022;-67
2022/11/27 10:38:53;;;;;;;14.37;3.93;;;;;;;-142.75;100.00;78182.81;4953728;28;20030;-65
2022/11/27 10:41:55;;;;;;;9.97;4.43;;;;;;;-142.75;100.00;78167.03;4942950;28;20026;-65
2022/11/27 10:44:27;;;;;;;9.27;4.23;;;;;;;-142.75;100.00;78170.97;4954058;28;20056;-66
2022/11/27 10:47:00;;;;;;;9.93;4.03;;;;;;;-142.75;100.00;78172.94;4950278;28;20034;-66
2022/11/27 10:49:25;;;;;;;13.63;4.27;;;;;;;-142.75;100.00;78165.06;4957465;28;20064;-66
2022/11/27 10:51:51;;;;;;;13.63;3.83;;;;;;;-142.75;100.00;78172.94;4956431;28;20026;-66
2022/11/27 10:54:31;;;;;;;8.20;3.60;;;;;;;-142.75;100.00;78153.25;4950038;28;20336;-66
2022/11/27 10:57:50;;;;;;;9.10;4.03;;;;;;;-142.75;100.00;78153.25;4949774;28;20914;-66
2022/11/27 11:00:22;;;;;;;8.67;4.70;;;;;;;-142.75;100.00;78143.41;4892552;28;20596;-65
2022/11/27 11:02:48;;;;;;;12.00;3.77;;;;;;;-142.75;100.00;78149.31;4948290;28;20670;-67
2022/11/27 11:05:21;;;;;;;5.55;3.58;;;;;;;-142.75;100.00;78125.69;4952038;28;20060;-66
2022/11/27 11:08:05;;;;;;;10.70;4.10;;;;;;;-142.75;100.00;78141.44;4952048;28;20569;-65
2022/11/27 11:10:32;;;;;;;11.17;4.10;;;;;;;-142.75;100.00;78125.69;4951791;28;20022;-64
2022/11/27 11:13:10;;;;;;;8.63;4.23;;;;;;;-142.75;100.00;78121.75;4947947;28;20025;-65
2022/11/27 11:15:46;;;;;;;12.70;3.93;;;;;;;-142.75;100.00;78123.72;4953546;28;20493;-65
2022/11/27 11:18:21;;;;;;;9.82;3.72;;;;;;;-142.75;100.00;78133.56;4955409;28;20025;-65
2022/11/27 11:20:50;;;;;;;13.00;3.50;;;;;;;-142.75;100.00;78125.69;4956278;28;20084;-64
2022/11/27 11:23:34;;;;;;;11.60;3.50;;;;;;;-142.75;100.00;78117.81;4954192;28;20554;-66